Latest Weather Observations for Arlington Reef

IDQ60801

Issued at 8:22 am EST Tuesday 27 October 2020 (issued every 10 minutes, with the page automatically refreshed every 10 minutes)

About weather observations | Map of weather stations | Latest weather observations for QLD | Other Formats
Station Details ID: 200879 Name: ARLINGTON REEF Lat: -16.72 Lon: 146.11 Height: 0.0 m
Data from the previous 72 hours. | See also: Recent months at Arlington Reef
Date/Time
EST
Temp
°C
App
Temp
°C
Dew
Point
°C
Rel
Hum
%
Delta-T
°C
Wind Press
QNH
hPa
Press
MSL
hPa
Rain since
9am
mm
Dir  Spd
km/h
Gust
km/h
Spd
kts
Gust
kts
27/08:00am - - - - - SSE 13 15 7 8 1013.4 1013.4 -
27/07:30am - - - - - SE 11 13 6 7 1013.1 1013.1 -
27/07:00am - - - - - ESE 13 15 7 8 1012.8 1012.8 -
27/06:30am - - - - - SE 9 13 5 7 1012.5 1012.5 -
27/06:00am - - - - - SE 11 15 6 8 1012.3 1012.3 -
27/05:30am - - - - - SE 15 17 8 9 1011.9 1011.9 -
27/05:00am - - - - - SE 15 19 8 10 1011.6 1011.6 -
27/04:30am - - - - - ESE 15 17 8 9 1011.4 1011.4 -
27/04:00am - - - - - ESE 19 20 10 11 1010.8 1010.8 -
27/03:30am - - - - - ESE 17 20 9 11 1010.8 1010.8 -
27/03:00am - - - - - ESE 17 19 9 10 1010.9 1010.9 -
27/02:30am - - - - - ESE 15 19 8 10 1011.4 1011.4 -
27/02:00am - - - - - SE 15 17 8 9 1011.7 1011.7 -
27/01:30am - - - - - SE 15 17 8 9 1012.0 1012.0 -
27/01:00am - - - - - SE 15 17 8 9 1012.3 1012.3 -
27/12:30am - - - - - SE 13 15 7 8 1012.5 1012.5 -
27/12:00am - - - - - SE 13 17 7 9 1012.6 1012.6 -
 
Date/Time
EST
Temp
°C
App
Temp
°C
Dew
Point
°C
Rel
Hum
%
Delta-T
°C
Wind Press
QNH
hPa
Press
MSL
hPa
Rain since
9am
mm
Dir  Spd
km/h
Gust
km/h
Spd
kts
Gust
kts
26/11:30pm - - - - - SSE 19 20 10 11 1012.6 1012.6 -
26/11:00pm - - - - - ENE 11 13 6 7 1012.7 1012.7 -
26/10:30pm - - - - - ENE 11 13 6 7 1013.1 1013.1 -
26/10:00pm - - - - - ENE 13 15 7 8 1012.7 1012.7 -
26/09:30pm - - - - - NE 13 15 7 8 1012.3 1012.3 -
26/09:00pm - - - - - NE 6 7 3 4 1012.0 1012.0 -
26/08:30pm - - - - - NE 6 9 3 5 1011.5 1011.5 -
26/08:00pm - - - - - NE 4 6 2 3 1010.9 1010.9 -
26/07:30pm - - - - - NE 7 11 4 6 1010.6 1010.6 -
26/07:00pm - - - - - NE 13 15 7 8 1010.1 1010.1 -
26/06:30pm - - - - - NNE 11 15 6 8 1009.8 1009.8 -
26/06:00pm - - - - - E 15 19 8 10 1009.4 1009.4 -
26/05:30pm - - - - - E 13 15 7 8 1009.0 1009.0 -
26/05:00pm - - - - - E 17 19 9 10 1008.5 1008.5 -
26/04:30pm - - - - - E 13 15 7 8 1008.3 1008.3 -
26/04:00pm - - - - - E 11 15 6 8 1008.4 1008.4 -
26/03:30pm - - - - - E 6 6 3 3 1008.9 1008.9 -
26/03:00pm - - - - - E 4 6 2 3 1009.1 1009.1 -
26/02:30pm - - - - - CALM 0 0 0 0 1009.6 1009.6 -
26/02:00pm - - - - - E 2 6 1 3 1009.9 1009.9 -
26/01:30pm - - - - - E 6 7 3 4 1010.1 1010.1 -
26/01:00pm - - - - - E 6 9 3 5 1010.0 1010.0 -
26/12:30pm - - - - - E 9 11 5 6 1010.6 1010.6 -
26/12:00pm - - - - - E 13 15 7 8 1010.9 1010.9 -
26/11:30am - - - - - E 13 17 7 9 1011.4 1011.4 -
26/11:00am - - - - - E 11 15 6 8 1011.8 1011.8 -
26/10:30am - - - - - E 11 13 6 7 1012.3 1012.3 -
26/10:00am - - - - - ESE 9 11 5 6 1012.4 1012.4 -
26/09:30am - - - - - SSW 6 6 3 3 1012.5 1012.5 -
26/09:00am - - - - - CALM 0 0 0 0 1012.4 1012.4 -
26/08:30am - - - - - SW 6 7 3 4 1011.8 1011.8 -
26/08:00am - - - - - WSW 6 7 3 4 1011.9 1011.9 -
26/07:30am - - - - - W 9 11 5 6 1011.5 1011.5 -
26/07:00am - - - - - W 9 9 5 5 1011.3 1011.3 -
26/06:00am - - - - - W 7 9 4 5 1010.2 1010.2 -
26/05:30am - - - - - WSW 13 15 7 8 1009.9 1009.9 -
26/05:00am - - - - - NNW 15 19 8 10 1009.4 1009.4 -
26/04:30am - - - - - NNW 17 20 9 11 1008.9 1008.9 -
26/04:00am - - - - - NNE 30 - 16 - - 1007.7 -
26/03:30am - - - - - NE 20 24 11 13 1008.1 1008.1 -
26/03:00am - - - - - NNE 17 19 9 10 1008.7 1008.7 -
26/02:30am - - - - - NNW 13 15 7 8 1008.9 1008.9 -
26/02:00am - - - - - NNW 15 19 8 10 1009.7 1009.7 -
26/01:30am - - - - - NNW 15 17 8 9 1010.3 1010.3 -
26/01:00am - - - - - NNW 20 24 11 13 1010.5 1010.5 -
26/12:30am - - - - - NW 15 17 8 9 1010.9 1010.9 -
26/12:00am - - - - - NW 11 13 6 7 1011.2 1011.2 -
 
Date/Time
EST
Temp
°C
App
Temp
°C
Dew
Point
°C
Rel
Hum
%
Delta-T
°C
Wind Press
QNH
hPa
Press
MSL
hPa
Rain since
9am
mm
Dir  Spd
km/h
Gust
km/h
Spd
kts
Gust
kts
25/11:30pm - - - - - NNW 7 11 4 6 1011.5 1011.5 -
25/11:00pm - - - - - NNE 4 6 2 3 1011.3 1011.3 -
25/10:30pm - - - - - NNE 7 9 4 5 1011.6 1011.6 -
25/10:00pm - - - - - - - - - - 1011.7 1011.7 -
25/09:30pm - - - - - N 6 9 3 5 1011.6 1011.6 -
25/09:00pm - - - - - N 9 11 5 6 1010.9 1010.9 -
25/08:30pm - - - - - N 11 15 6 8 1010.7 1010.7 -
25/08:00pm - - - - - NNE 19 20 10 11 1010.1 1010.1 -
25/07:00pm - - - - - CALM 0 0 0 0 1010.4 1010.4 -
25/06:30pm - - - - - N 4 7 2 4 1009.8 1009.8 -
25/06:00pm - - - - - NNE 11 15 6 8 1009.6 1009.6 -
25/05:30pm - - - - - N 11 15 6 8 1009.8 1009.8 -
25/05:00pm - - - - - N 13 17 7 9 1009.3 1009.3 -
25/04:30pm - - - - - N 17 20 9 11 1009.3 1009.3 -
25/04:00pm - - - - - N 15 17 8 9 1009.5 1009.5 -
25/03:30pm - - - - - NE 15 19 8 10 1009.0 1009.0 -
25/03:00pm - - - - - NE 17 20 9 11 1009.4 1009.4 -
25/02:30pm - - - - - NE 15 20 8 11 1009.8 1009.8 -
25/02:00pm - - - - - NE 15 19 8 10 1010.1 1010.1 -
25/01:30pm - - - - - NNE 11 15 6 8 1010.6 1010.6 -
25/01:00pm - - - - - NE 11 13 6 7 1010.9 1010.9 -
25/12:30pm - - - - - NNE 7 9 4 5 1011.6 1011.6 -
25/12:00pm - - - - - N 7 9 4 5 1012.1 1012.1 -
25/11:30am - - - - - N 9 9 5 5 1012.1 1012.1 -
25/11:00am - - - - - N 6 9 3 5 1012.7 1012.7 -
25/10:30am - - - - - N 7 9 4 5 1012.7 1012.7 -
25/10:00am - - - - - NNE 9 13 5 7 1013.0 1013.0 -
25/09:30am - - - - - N 9 13 5 7 1013.0 1013.0 -
25/09:00am - - - - - N 9 11 5 6 1013.2 1013.2 -
25/08:30am - - - - - N 7 11 4 6 1013.2 1013.2 -
25/08:00am - - - - - NNW 7 11 4 6 1012.8 1012.8 -
25/07:30am - - - - - N 9 11 5 6 1012.3 1012.3 -
25/07:00am - - - - - NNW 9 9 5 5 1012.1 1012.1 -
25/06:30am - - - - - NNW 11 13 6 7 1012.0 1012.0 -
25/06:00am - - - - - N 9 13 5 7 1011.4 1011.4 -
25/05:30am - - - - - N 9 11 5 6 1010.7 1010.7 -
25/05:00am - - - - - N 9 11 5 6 1010.5 1010.5 -
25/04:30am - - - - - NW 7 9 4 5 1010.6 1010.6 -
25/04:00am - - - - - NW 9 11 5 6 1010.4 1010.4 -
25/03:30am - - - - - NW 7 9 4 5 1010.2 1010.2 -
25/03:00am - - - - - NNW 11 13 6 7 1010.1 1010.1 -
25/02:30am - - - - - NNW 9 13 5 7 1010.4 1010.4 -
25/02:00am - - - - - NNW 9 13 5 7 1010.8 1010.8 -
25/01:30am - - - - - NNW 9 11 5 6 1010.9 1010.9 -
25/01:00am - - - - - N 9 11 5 6 1011.2 1011.2 -
25/12:30am - - - - - N 9 13 5 7 1011.8 1011.8 -
25/12:00am - - - - - N 7 11 4 6 1011.8 1011.8 -
 
Date/Time
EST
Temp
°C
App
Temp
°C
Dew
Point
°C
Rel
Hum
%
Delta-T
°C
Wind Press
QNH
hPa
Press
MSL
hPa
Rain since
9am
mm
Dir  Spd
km/h
Gust
km/h
Spd
kts
Gust
kts
24/11:30pm - - - - - N 6 9 3 5 1012.0 1012.0 -
24/11:00pm - - - - - N 9 13 5 7 1012.3 1012.3 -
24/10:30pm - - - - - N 9 11 5 6 1012.4 1012.4 -
24/10:00pm - - - - - N 11 15 6 8 1012.5 1012.5 -
24/09:30pm - - - - - N 11 17 6 9 1012.0 1012.0 -
24/09:00pm - - - - - N 13 17 7 9 1011.9 1011.9 -
24/08:30pm - - - - - NNE 13 17 7 9 1011.6 1011.6 -
24/08:00pm - - - - - NNE 15 19 8 10 1011.5 1011.5 -
24/07:30pm - - - - - NNE 17 20 9 11 1011.2 1011.2 -
24/07:00pm - - - - - ENE 15 17 8 9 1011.0 1011.0 -
24/06:30pm - - - - - E 11 15 6 8 1010.8 1010.8 -
24/06:00pm - - - - - E 13 17 7 9 1010.5 1010.5 -
24/05:30pm - - - - - E 11 15 6 8 1010.4 1010.4 -
24/05:00pm - - - - - E 11 13 6 7 1010.5 1010.5 -
24/04:30pm - - - - - E 11 15 6 8 1010.2 1010.2 -
24/04:00pm - - - - - E 9 13 5 7 1010.3 1010.3 -
24/03:30pm - - - - - E 9 11 5 6 1010.4 1010.4 -
24/03:00pm - - - - - E 9 13 5 7 1010.6 1010.6 -
24/02:30pm - - - - - E 13 17 7 9 1010.6 1010.6 -
24/02:00pm - - - - - E 11 15 6 8 1010.9 1010.9 -
24/01:30pm - - - - - E 15 17 8 9 1011.0 1011.0 -
24/01:00pm - - - - - E 13 15 7 8 1011.5 1011.5 -
24/12:30pm - - - - - E 9 13 5 7 1012.1 1012.1 -
24/12:00pm - - - - - ESE 7 11 4 6 1012.9 1012.9 -
24/11:30am - - - - - S 6 7 3 4 1013.6 1013.6 -
24/11:00am - - - - - S 9 11 5 6 1014.0 1014.0 -
24/10:30am - - - - - SE 9 11 5 6 1014.4 1014.4 -
24/10:00am - - - - - E 2 4 1 2 1014.4 1014.4 -
24/09:30am - - - - - E 4 6 2 3 1014.3 1014.3 -
24/09:00am - - - - - E 4 6 2 3 1014.1 1014.1 -
24/08:30am - - - - - E 9 11 5 6 1013.7 1013.7 -

Other formats

Comma delimited format used in spreadsheet applications
http://www.bom.gov.au/fwo/IDQ60801/IDQ60801.94284.axf

JavaScript Object Notation format (JSON) in row-major order
http://www.bom.gov.au/fwo/IDQ60801/IDQ60801.94284.json

Data quality

Most of these data are generated automatically and are frequently updated. Quality checks on data are not normally performed. It is possible for incorrect values to appear. Refer to information at About Latest Weather Observations and please check the disclaimer before using these data.